LHA1832 EDDH-LOWW
Flight info
| Callsign | LHA1832 |
|---|---|
| Flight time | 1h 11m |
| Altitude | 35000 |
| Route | RAMAR6G RAMAR Z998 OSKAN M748 HDO DCT EVIKU DCT BITSI DCT MIKOV MIKOV8W |
| Aircraft | B77L/H-SDE1E2E3FGHIJ2J3J4J5M1RWXY/LB1D1 |
Departure
| Time | 2026-04-26 08:41 |
|---|---|
| Airport | Hamburg Helmut Schmidt Airport (EDDH) |
Arrival
| Time | 2026-04-26 09:53 |
|---|---|
| Airport | Vienna International Airport (LOWW) |
| Time | Latitude | Longitude | Altitude | Speed | Heading |
|---|---|---|---|---|---|
| 2026-04-26 08:06 | 53.62739 | 9.99134 | 55 ft | 0 kts | 62° |
| 2026-04-26 08:33 | 53.62730 | 9.99097 | 29 ft | 4 kts | 84° |
| 2026-04-26 08:33 | 53.62732 | 9.99053 | 53 ft | 4 kts | 112° |
| 2026-04-26 08:33 | 53.62746 | 9.99015 | 47 ft | 4 kts | 134° |
| 2026-04-26 08:34 | 53.62764 | 9.98991 | 47 ft | 1 kts | 155° |
| 2026-04-26 08:34 | 53.62765 | 9.98990 | 47 ft | 2 kts | 156° |
| 2026-04-26 08:37 | 53.62764 | 9.98991 | 47 ft | 0 kts | 155° |
| 2026-04-26 08:37 | 53.62754 | 9.98999 | 47 ft | 3 kts | 154° |
| 2026-04-26 08:38 | 53.62728 | 9.99021 | 47 ft | 5 kts | 153° |
| 2026-04-26 08:38 | 53.62687 | 9.99058 | 49 ft | 8 kts | 152° |
| 2026-04-26 08:38 | 53.62631 | 9.99106 | 51 ft | 9 kts | 152° |
| 2026-04-26 08:38 | 53.62586 | 9.99182 | 49 ft | 10 kts | 119° |
| 2026-04-26 08:39 | 53.62584 | 9.99292 | 50 ft | 10 kts | 78° |
| 2026-04-26 08:39 | 53.62598 | 9.99403 | 52 ft | 10 kts | 78° |
| 2026-04-26 08:39 | 53.62611 | 9.99515 | 49 ft | 10 kts | 79° |
| 2026-04-26 08:39 | 53.62624 | 9.99628 | 50 ft | 10 kts | 79° |
| 2026-04-26 08:40 | 53.62638 | 9.99747 | 47 ft | 13 kts | 76° |
| 2026-04-26 08:40 | 53.62679 | 9.99859 | 49 ft | 8 kts | 37° |
| 2026-04-26 08:40 | 53.62744 | 9.99845 | 49 ft | 14 kts | 336° |
| 2026-04-26 08:40 | 53.62950 | 9.99670 | 47 ft | 63 kts | 333° |
| 2026-04-26 08:41 | 53.63309 | 9.99361 | 48 ft | 111 kts | 333° |
| 2026-04-26 08:41 | 53.64179 | 9.98603 | 49 ft | 168 kts | 331° |
| 2026-04-26 08:41 | 53.65284 | 9.97655 | 495 ft | 178 kts | 335° |
| 2026-04-26 08:41 | 53.66417 | 9.96745 | 1203 ft | 182 kts | 334° |
| 2026-04-26 08:42 | 53.67550 | 9.95765 | 1911 ft | 187 kts | 334° |
| 2026-04-26 08:42 | 53.68788 | 9.94751 | 2254 ft | 206 kts | 343° |
| 2026-04-26 08:42 | 53.70206 | 9.94583 | 2581 ft | 205 kts | 4° |
| 2026-04-26 08:42 | 53.71654 | 9.94656 | 2949 ft | 211 kts | 1° |
| 2026-04-26 08:43 | 53.73153 | 9.95063 | 3142 ft | 231 kts | 27° |
| 2026-04-26 08:43 | 53.74293 | 9.97032 | 3654 ft | 244 kts | 61° |
| 2026-04-26 08:43 | 53.75035 | 9.99688 | 4260 ft | 255 kts | 64° |
| 2026-04-26 08:43 | 53.75800 | 10.02431 | 5092 ft | 260 kts | 63° |
| 2026-04-26 08:44 | 53.76494 | 10.05262 | 5881 ft | 264 kts | 76° |
| 2026-04-26 08:44 | 53.76356 | 10.08396 | 6589 ft | 277 kts | 111° |
| 2026-04-26 08:44 | 53.75330 | 10.11175 | 7260 ft | 284 kts | 124° |
| 2026-04-26 08:44 | 53.74208 | 10.13773 | 7890 ft | 292 kts | 124° |
| 2026-04-26 08:45 | 53.73006 | 10.16572 | 8673 ft | 297 kts | 123° |
| 2026-04-26 08:45 | 53.71794 | 10.19428 | 9419 ft | 302 kts | 123° |
| 2026-04-26 08:45 | 53.70566 | 10.22358 | 10158 ft | 309 kts | 123° |
| 2026-04-26 08:45 | 53.69318 | 10.25369 | 10759 ft | 320 kts | 123° |
| 2026-04-26 08:46 | 53.68003 | 10.28571 | 10983 ft | 345 kts | 122° |
| 2026-04-26 08:46 | 53.66592 | 10.32032 | 11176 ft | 371 kts | 122° |
| 2026-04-26 08:46 | 53.65082 | 10.35745 | 11511 ft | 392 kts | 122° |
| 2026-04-26 08:46 | 53.63516 | 10.39597 | 12202 ft | 404 kts | 122° |
| 2026-04-26 08:47 | 53.61913 | 10.43538 | 13070 ft | 411 kts | 122° |
| 2026-04-26 08:47 | 53.60286 | 10.47539 | 13989 ft | 417 kts | 122° |
| 2026-04-26 08:47 | 53.58639 | 10.51586 | 14832 ft | 423 kts | 122° |
| 2026-04-26 08:47 | 53.56962 | 10.55702 | 15660 ft | 428 kts | 122° |
| 2026-04-26 08:48 | 53.55272 | 10.59846 | 16473 ft | 433 kts | 122° |
| 2026-04-26 08:48 | 53.53554 | 10.64051 | 17251 ft | 439 kts | 123° |
| 2026-04-26 08:48 | 53.51813 | 10.68307 | 18042 ft | 445 kts | 123° |
| 2026-04-26 08:48 | 53.50049 | 10.72611 | 18818 ft | 449 kts | 123° |
| 2026-04-26 08:49 | 53.48267 | 10.76949 | 19523 ft | 454 kts | 123° |
| 2026-04-26 08:49 | 53.46465 | 10.81330 | 20207 ft | 458 kts | 123° |
| 2026-04-26 08:49 | 53.44643 | 10.85753 | 20885 ft | 463 kts | 123° |
| 2026-04-26 08:49 | 53.42799 | 10.90221 | 21528 ft | 469 kts | 123° |
| 2026-04-26 08:50 | 53.40922 | 10.94761 | 22076 ft | 477 kts | 123° |
| 2026-04-26 08:50 | 53.39021 | 10.99351 | 22732 ft | 482 kts | 123° |
| 2026-04-26 08:50 | 53.37101 | 11.03977 | 23439 ft | 485 kts | 123° |
| 2026-04-26 08:50 | 53.35169 | 11.08623 | 24076 ft | 489 kts | 123° |
| 2026-04-26 08:51 | 53.31243 | 11.18040 | 25178 ft | 497 kts | 124° |
| 2026-04-26 08:51 | 53.29258 | 11.22788 | 25736 ft | 500 kts | 124° |
| 2026-04-26 08:51 | 53.27257 | 11.27567 | 26288 ft | 504 kts | 124° |
| 2026-04-26 08:52 | 53.25239 | 11.32374 | 26817 ft | 507 kts | 125° |
| 2026-04-26 08:52 | 53.23202 | 11.37220 | 27264 ft | 514 kts | 124° |
| 2026-04-26 08:52 | 53.21133 | 11.42134 | 27700 ft | 519 kts | 125° |
| 2026-04-26 08:52 | 53.19077 | 11.47012 | 28205 ft | 522 kts | 125° |
| 2026-04-26 08:53 | 53.16985 | 11.51955 | 28852 ft | 521 kts | 126° |
| 2026-04-26 08:53 | 53.14776 | 11.56728 | 29406 ft | 522 kts | 131° |
| 2026-04-26 08:53 | 53.12293 | 11.61169 | 29811 ft | 525 kts | 138° |
| 2026-04-26 08:53 | 53.09573 | 11.65219 | 30303 ft | 526 kts | 140° |
| 2026-04-26 08:54 | 53.06827 | 11.69246 | 30848 ft | 524 kts | 140° |
| 2026-04-26 08:54 | 53.04126 | 11.73295 | 31448 ft | 521 kts | 139° |
| 2026-04-26 08:54 | 53.01455 | 11.77356 | 31983 ft | 521 kts | 139° |
| 2026-04-26 08:54 | 52.98867 | 11.81595 | 32316 ft | 525 kts | 134° |
| 2026-04-26 08:55 | 52.96513 | 11.86226 | 32767 ft | 525 kts | 127° |
| 2026-04-26 08:55 | 52.94357 | 11.91083 | 33335 ft | 522 kts | 127° |
| 2026-04-26 08:55 | 52.92212 | 11.95919 | 33895 ft | 520 kts | 127° |
| 2026-04-26 08:55 | 52.90050 | 12.00708 | 34388 ft | 518 kts | 128° |
| 2026-04-26 08:56 | 52.87872 | 12.05458 | 34784 ft | 517 kts | 128° |
| 2026-04-26 08:56 | 52.85689 | 12.10192 | 35172 ft | 516 kts | 128° |
| 2026-04-26 08:56 | 52.83503 | 12.14927 | 35333 ft | 520 kts | 128° |
| 2026-04-26 08:57 | 52.79105 | 12.24452 | 35307 ft | 521 kts | 127° |
| 2026-04-26 08:57 | 52.74723 | 12.33919 | 35299 ft | 518 kts | 128° |
| 2026-04-26 08:58 | 52.69852 | 12.42607 | 35297 ft | 515 kts | 140° |
| 2026-04-26 08:58 | 52.64087 | 12.49534 | 35302 ft | 511 kts | 152° |
| 2026-04-26 08:59 | 52.57939 | 12.55456 | 35279 ft | 512 kts | 152° |
| 2026-04-26 08:59 | 52.51797 | 12.61394 | 35295 ft | 514 kts | 151° |
| 2026-04-26 09:00 | 52.45645 | 12.67408 | 35303 ft | 516 kts | 151° |
| 2026-04-26 09:00 | 52.39470 | 12.73447 | 35305 ft | 518 kts | 151° |
| 2026-04-26 09:01 | 52.33275 | 12.79478 | 35296 ft | 519 kts | 151° |
| 2026-04-26 09:01 | 52.27066 | 12.85503 | 35290 ft | 518 kts | 151° |
| 2026-04-26 09:02 | 52.20879 | 12.91503 | 35292 ft | 517 kts | 151° |
| 2026-04-26 09:02 | 52.14709 | 12.97513 | 35289 ft | 516 kts | 151° |
| 2026-04-26 09:03 | 52.08548 | 13.03501 | 35297 ft | 516 kts | 151° |
| 2026-04-26 09:03 | 52.02385 | 13.09465 | 35276 ft | 515 kts | 151° |
| 2026-04-26 09:04 | 51.96272 | 13.15358 | 35291 ft | 514 kts | 151° |
| 2026-04-26 09:04 | 51.90130 | 13.21263 | 35293 ft | 513 kts | 151° |
| 2026-04-26 09:05 | 51.83986 | 13.27151 | 35302 ft | 513 kts | 151° |
| 2026-04-26 09:05 | 51.77813 | 13.33021 | 35297 ft | 515 kts | 151° |
| 2026-04-26 09:06 | 51.71623 | 13.38861 | 35294 ft | 515 kts | 151° |
| 2026-04-26 09:06 | 51.65435 | 13.44689 | 35293 ft | 515 kts | 151° |
| 2026-04-26 09:07 | 51.59255 | 13.50497 | 35293 ft | 514 kts | 151° |
| 2026-04-26 09:07 | 51.53082 | 13.56281 | 35296 ft | 513 kts | 152° |
| 2026-04-26 09:08 | 51.46945 | 13.62133 | 35286 ft | 514 kts | 148° |
| 2026-04-26 09:08 | 51.41351 | 13.69279 | 35299 ft | 515 kts | 138° |
| 2026-04-26 09:09 | 51.36036 | 13.76941 | 35294 ft | 515 kts | 139° |
| 2026-04-26 09:09 | 51.30649 | 13.84525 | 35293 ft | 515 kts | 139° |
| 2026-04-26 09:10 | 51.25251 | 13.92051 | 35296 ft | 515 kts | 140° |
| 2026-04-26 09:10 | 51.19845 | 13.99567 | 35273 ft | 515 kts | 140° |
| 2026-04-26 09:11 | 51.14445 | 14.07056 | 35278 ft | 514 kts | 140° |
| 2026-04-26 09:11 | 51.09051 | 14.14517 | 35283 ft | 513 kts | 140° |
| 2026-04-26 09:12 | 51.03665 | 14.21946 | 35285 ft | 512 kts | 140° |
| 2026-04-26 09:12 | 50.98316 | 14.29321 | 35295 ft | 512 kts | 139° |
| 2026-04-26 09:13 | 50.92501 | 14.35808 | 35281 ft | 511 kts | 155° |
| 2026-04-26 09:13 | 50.85878 | 14.39701 | 35270 ft | 506 kts | 170° |
| 2026-04-26 09:14 | 50.78996 | 14.42096 | 35285 ft | 506 kts | 170° |
| 2026-04-26 09:14 | 50.72118 | 14.44542 | 35269 ft | 507 kts | 169° |
| 2026-04-26 09:15 | 50.65260 | 14.47066 | 35273 ft | 505 kts | 169° |
| 2026-04-26 09:15 | 50.58432 | 14.49588 | 35270 ft | 502 kts | 169° |
| 2026-04-26 09:16 | 50.51642 | 14.52083 | 35266 ft | 500 kts | 168° |
| 2026-04-26 09:16 | 50.45221 | 14.56321 | 35283 ft | 505 kts | 149° |
| 2026-04-26 09:17 | 50.39792 | 14.63300 | 35271 ft | 508 kts | 136° |
| 2026-04-26 09:17 | 50.34769 | 14.71103 | 35278 ft | 509 kts | 136° |
| 2026-04-26 09:18 | 50.29722 | 14.78865 | 35282 ft | 510 kts | 136° |
| 2026-04-26 09:18 | 50.24621 | 14.86576 | 35297 ft | 510 kts | 137° |
| 2026-04-26 09:19 | 50.19523 | 14.94214 | 35284 ft | 512 kts | 137° |
| 2026-04-26 09:19 | 50.14370 | 15.01909 | 35263 ft | 513 kts | 137° |
| 2026-04-26 09:20 | 50.09181 | 15.09640 | 35258 ft | 512 kts | 137° |
| 2026-04-26 09:20 | 50.04082 | 15.17217 | 35249 ft | 509 kts | 137° |
| 2026-04-26 09:21 | 49.98961 | 15.24803 | 35254 ft | 508 kts | 137° |
| 2026-04-26 09:21 | 49.93842 | 15.32361 | 35267 ft | 508 kts | 137° |
| 2026-04-26 09:22 | 49.88718 | 15.39905 | 35249 ft | 508 kts | 137° |
| 2026-04-26 09:22 | 49.83581 | 15.47444 | 35213 ft | 509 kts | 137° |
| 2026-04-26 09:23 | 49.78453 | 15.54947 | 35245 ft | 507 kts | 137° |
| 2026-04-26 09:23 | 49.73314 | 15.62442 | 35234 ft | 508 kts | 137° |
| 2026-04-26 09:23 | 49.70728 | 15.66206 | 34838 ft | 514 kts | 137° |
| 2026-04-26 09:24 | 49.68123 | 15.69990 | 34222 ft | 513 kts | 137° |
| 2026-04-26 09:24 | 49.65525 | 15.73759 | 33538 ft | 511 kts | 137° |
| 2026-04-26 09:24 | 49.62943 | 15.77500 | 32880 ft | 508 kts | 137° |
| 2026-04-26 09:24 | 49.60369 | 15.81224 | 32235 ft | 506 kts | 137° |
| 2026-04-26 09:25 | 49.57803 | 15.84930 | 31612 ft | 504 kts | 137° |
| 2026-04-26 09:25 | 49.55245 | 15.88619 | 31018 ft | 502 kts | 137° |
| 2026-04-26 09:25 | 49.52699 | 15.92285 | 30424 ft | 500 kts | 137° |
| 2026-04-26 09:25 | 49.50164 | 15.95929 | 29801 ft | 497 kts | 137° |
| 2026-04-26 09:26 | 49.47645 | 15.99546 | 29167 ft | 494 kts | 137° |
| 2026-04-26 09:26 | 49.45140 | 16.03137 | 28546 ft | 491 kts | 137° |
| 2026-04-26 09:26 | 49.42647 | 16.06706 | 27943 ft | 489 kts | 137° |
| 2026-04-26 09:26 | 49.40166 | 16.10253 | 27336 ft | 486 kts | 137° |
| 2026-04-26 09:27 | 49.37701 | 16.13774 | 26751 ft | 484 kts | 137° |
| 2026-04-26 09:27 | 49.35242 | 16.17279 | 26174 ft | 481 kts | 136° |
| 2026-04-26 09:27 | 49.32758 | 16.20705 | 25610 ft | 479 kts | 141° |
| 2026-04-26 09:27 | 49.30081 | 16.23732 | 25080 ft | 477 kts | 147° |
| 2026-04-26 09:28 | 49.28228 | 16.25517 | 24728 ft | 469 kts | 150° |
| 2026-04-26 09:28 | 49.25382 | 16.27765 | 24155 ft | 454 kts | 156° |
| 2026-04-26 09:28 | 49.21607 | 16.30495 | 23475 ft | 453 kts | 155° |
| 2026-04-26 09:28 | 49.18762 | 16.32563 | 22879 ft | 452 kts | 155° |
| 2026-04-26 09:29 | 49.15943 | 16.34625 | 22280 ft | 442 kts | 155° |
| 2026-04-26 09:29 | 49.14087 | 16.35990 | 21873 ft | 434 kts | 155° |
| 2026-04-26 09:29 | 49.11438 | 16.37944 | 21302 ft | 424 kts | 155° |
| 2026-04-26 09:29 | 49.08799 | 16.39891 | 20744 ft | 420 kts | 155° |
| 2026-04-26 09:30 | 49.06146 | 16.41847 | 20227 ft | 428 kts | 155° |
| 2026-04-26 09:30 | 49.03441 | 16.43839 | 19722 ft | 434 kts | 155° |
| 2026-04-26 09:30 | 49.00718 | 16.45842 | 19180 ft | 435 kts | 155° |
| 2026-04-26 09:30 | 48.97990 | 16.47847 | 18694 ft | 434 kts | 155° |
| 2026-04-26 09:31 | 48.95272 | 16.49842 | 18145 ft | 434 kts | 155° |
| 2026-04-26 09:31 | 48.92556 | 16.51833 | 17564 ft | 433 kts | 155° |
| 2026-04-26 09:31 | 48.89847 | 16.53817 | 16992 ft | 432 kts | 155° |
| 2026-04-26 09:31 | 48.87142 | 16.55795 | 16438 ft | 430 kts | 155° |
| 2026-04-26 09:32 | 48.84451 | 16.57762 | 15884 ft | 424 kts | 155° |
| 2026-04-26 09:32 | 48.81847 | 16.59662 | 15303 ft | 407 kts | 155° |
| 2026-04-26 09:32 | 48.79346 | 16.61484 | 14760 ft | 391 kts | 156° |
| 2026-04-26 09:32 | 48.76835 | 16.62947 | 14367 ft | 385 kts | 168° |
| 2026-04-26 09:33 | 48.74231 | 16.63838 | 14016 ft | 383 kts | 172° |
| 2026-04-26 09:33 | 48.71696 | 16.64535 | 13644 ft | 383 kts | 173° |
| 2026-04-26 09:33 | 48.69071 | 16.65268 | 13261 ft | 384 kts | 172° |
| 2026-04-26 09:33 | 48.66450 | 16.66066 | 12873 ft | 384 kts | 171° |
| 2026-04-26 09:34 | 48.63903 | 16.66889 | 12489 ft | 378 kts | 171° |
| 2026-04-26 09:34 | 48.61376 | 16.67722 | 12089 ft | 370 kts | 171° |
| 2026-04-26 09:34 | 48.58869 | 16.68282 | 11684 ft | 358 kts | 187° |
| 2026-04-26 09:34 | 48.56489 | 16.67512 | 11331 ft | 346 kts | 210° |
| 2026-04-26 09:35 | 48.54450 | 16.65722 | 10985 ft | 335 kts | 224° |
| 2026-04-26 09:35 | 48.52654 | 16.63629 | 10568 ft | 315 kts | 225° |
| 2026-04-26 09:35 | 48.50972 | 16.61675 | 10172 ft | 299 kts | 225° |
| 2026-04-26 09:35 | 48.49343 | 16.59796 | 10013 ft | 291 kts | 225° |
| 2026-04-26 09:36 | 48.47732 | 16.57975 | 10002 ft | 289 kts | 221° |
| 2026-04-26 09:36 | 48.45820 | 16.56863 | 9998 ft | 308 kts | 191° |
| 2026-04-26 09:36 | 48.43649 | 16.57257 | 10013 ft | 320 kts | 168° |
| 2026-04-26 09:36 | 48.41490 | 16.58213 | 10020 ft | 325 kts | 167° |
| 2026-04-26 09:37 | 48.39308 | 16.59181 | 10022 ft | 327 kts | 168° |
| 2026-04-26 09:37 | 48.37171 | 16.60123 | 9981 ft | 310 kts | 168° |
| 2026-04-26 09:37 | 48.35153 | 16.61000 | 9992 ft | 295 kts | 168° |
| 2026-04-26 09:37 | 48.33197 | 16.61834 | 9997 ft | 291 kts | 169° |
| 2026-04-26 09:38 | 48.31247 | 16.62654 | 9986 ft | 291 kts | 169° |
| 2026-04-26 09:38 | 48.29303 | 16.63471 | 10013 ft | 291 kts | 169° |
| 2026-04-26 09:38 | 48.27379 | 16.64280 | 10023 ft | 291 kts | 169° |
| 2026-04-26 09:38 | 48.25415 | 16.65103 | 9898 ft | 296 kts | 169° |
| 2026-04-26 09:39 | 48.23417 | 16.65939 | 9560 ft | 297 kts | 168° |
| 2026-04-26 09:39 | 48.21463 | 16.66762 | 9266 ft | 286 kts | 168° |
| 2026-04-26 09:39 | 48.19570 | 16.67558 | 8996 ft | 281 kts | 169° |
| 2026-04-26 09:39 | 48.17685 | 16.68346 | 8876 ft | 283 kts | 169° |
| 2026-04-26 09:40 | 48.15765 | 16.69145 | 8626 ft | 288 kts | 168° |
| 2026-04-26 09:40 | 48.13842 | 16.69950 | 8368 ft | 285 kts | 168° |
| 2026-04-26 09:40 | 48.11955 | 16.70740 | 8093 ft | 280 kts | 169° |
| 2026-04-26 09:40 | 48.10073 | 16.71526 | 7864 ft | 281 kts | 169° |
| 2026-04-26 09:41 | 48.08186 | 16.72309 | 7609 ft | 282 kts | 168° |
| 2026-04-26 09:41 | 48.06291 | 16.73097 | 7367 ft | 283 kts | 169° |
| 2026-04-26 09:41 | 48.04421 | 16.73876 | 7163 ft | 276 kts | 169° |
| 2026-04-26 09:41 | 48.02583 | 16.74640 | 6905 ft | 273 kts | 169° |
| 2026-04-26 09:42 | 48.00768 | 16.75393 | 6659 ft | 270 kts | 169° |
| 2026-04-26 09:42 | 47.98961 | 16.76141 | 6427 ft | 268 kts | 169° |
| 2026-04-26 09:42 | 47.97173 | 16.76881 | 6114 ft | 266 kts | 168° |
| 2026-04-26 09:42 | 47.95398 | 16.77616 | 6075 ft | 265 kts | 168° |
| 2026-04-26 09:43 | 47.93608 | 16.78353 | 6039 ft | 269 kts | 168° |
| 2026-04-26 09:43 | 47.91789 | 16.79106 | 5821 ft | 272 kts | 168° |
| 2026-04-26 09:43 | 47.89996 | 16.79848 | 5552 ft | 269 kts | 167° |
| 2026-04-26 09:43 | 47.88205 | 16.80586 | 5295 ft | 265 kts | 167° |
| 2026-04-26 09:44 | 47.86437 | 16.81313 | 5028 ft | 262 kts | 167° |
| 2026-04-26 09:44 | 47.84687 | 16.82034 | 4774 ft | 261 kts | 166° |
| 2026-04-26 09:44 | 47.82942 | 16.82732 | 4491 ft | 257 kts | 172° |
| 2026-04-26 09:44 | 47.81205 | 16.82664 | 4188 ft | 247 kts | 202° |
| 2026-04-26 09:45 | 47.79822 | 16.81353 | 4053 ft | 230 kts | 238° |
| 2026-04-26 09:45 | 47.79082 | 16.79316 | 4004 ft | 222 kts | 257° |
| 2026-04-26 09:45 | 47.78955 | 16.77117 | 3998 ft | 209 kts | 289° |
| 2026-04-26 09:45 | 47.79499 | 16.75164 | 3882 ft | 206 kts | 295° |
| 2026-04-26 09:46 | 47.80100 | 16.73239 | 3606 ft | 204 kts | 311° |
| 2026-04-26 09:46 | 47.81252 | 16.72059 | 3188 ft | 201 kts | 335° |
| 2026-04-26 09:46 | 47.82511 | 16.71081 | 3142 ft | 209 kts | 332° |
| 2026-04-26 09:46 | 47.83756 | 16.69951 | 2940 ft | 207 kts | 334° |
| 2026-04-26 09:47 | 47.85071 | 16.69235 | 2904 ft | 195 kts | 344° |
| 2026-04-26 09:47 | 47.86327 | 16.68667 | 2909 ft | 184 kts | 342° |
| 2026-04-26 09:47 | 47.87565 | 16.68115 | 2902 ft | 185 kts | 343° |
| 2026-04-26 09:47 | 47.88802 | 16.67584 | 2901 ft | 182 kts | 343° |
| 2026-04-26 09:48 | 47.89999 | 16.67076 | 2897 ft | 179 kts | 344° |
| 2026-04-26 09:48 | 47.91206 | 16.66581 | 2917 ft | 181 kts | 344° |
| 2026-04-26 09:48 | 47.92425 | 16.66062 | 2898 ft | 178 kts | 343° |
| 2026-04-26 09:48 | 47.93576 | 16.65574 | 2902 ft | 165 kts | 343° |
| 2026-04-26 09:49 | 47.94647 | 16.65123 | 2905 ft | 156 kts | 342° |
| 2026-04-26 09:49 | 47.95668 | 16.64694 | 2915 ft | 147 kts | 343° |
| 2026-04-26 09:49 | 47.96633 | 16.64289 | 2922 ft | 146 kts | 343° |
| 2026-04-26 09:49 | 47.97589 | 16.63885 | 2942 ft | 143 kts | 343° |
| 2026-04-26 09:50 | 47.98570 | 16.63471 | 2765 ft | 147 kts | 344° |
| 2026-04-26 09:50 | 47.99533 | 16.63067 | 2536 ft | 139 kts | 343° |
| 2026-04-26 09:50 | 48.00458 | 16.62681 | 2363 ft | 142 kts | 343° |
| 2026-04-26 09:50 | 48.01428 | 16.62268 | 2170 ft | 146 kts | 343° |
| 2026-04-26 09:51 | 48.02394 | 16.61859 | 1943 ft | 142 kts | 344° |
| 2026-04-26 09:51 | 48.03303 | 16.61477 | 1769 ft | 129 kts | 343° |
| 2026-04-26 09:51 | 48.04132 | 16.61127 | 1593 ft | 122 kts | 344° |
| 2026-04-26 09:51 | 48.04975 | 16.60771 | 1446 ft | 129 kts | 344° |
| 2026-04-26 09:52 | 48.05743 | 16.60446 | 1283 ft | 121 kts | 344° |
| 2026-04-26 09:52 | 48.07316 | 16.59800 | 954 ft | 116 kts | 345° |
| 2026-04-26 09:52 | 48.08088 | 16.59444 | 802 ft | 117 kts | 345° |
| 2026-04-26 09:53 | 48.08877 | 16.59122 | 660 ft | 120 kts | 347° |
| 2026-04-26 09:53 | 48.09643 | 16.58813 | 624 ft | 100 kts | 343° |
| 2026-04-26 09:53 | 48.10137 | 16.58601 | 622 ft | 47 kts | 342° |
| 2026-04-26 09:53 | 48.10347 | 16.58480 | 627 ft | 26 kts | 325° |
| 2026-04-26 09:54 | 48.10450 | 16.58286 | 631 ft | 14 kts | 301° |
| 2026-04-26 09:54 | 48.10475 | 16.58223 | 627 ft | 0 kts | 300° |
| 2026-04-26 09:54 | 48.10477 | 16.58218 | 615 ft | 2 kts | 301° |
| 2026-04-26 09:54 | 48.10524 | 16.58159 | 631 ft | 14 kts | 331° |
| 2026-04-26 09:55 | 48.10619 | 16.58110 | 624 ft | 15 kts | 345° |
| 2026-04-26 09:55 | 48.10715 | 16.58073 | 628 ft | 15 kts | 345° |
| 2026-04-26 09:55 | 48.10812 | 16.58033 | 630 ft | 15 kts | 343° |
| 2026-04-26 09:55 | 48.10909 | 16.57990 | 627 ft | 15 kts | 343° |
| 2026-04-26 09:56 | 48.11007 | 16.57949 | 627 ft | 15 kts | 344° |
| 2026-04-26 09:56 | 48.11095 | 16.57883 | 625 ft | 15 kts | 311° |
| 2026-04-26 09:56 | 48.11145 | 16.57751 | 630 ft | 15 kts | 295° |
| 2026-04-26 09:56 | 48.11188 | 16.57617 | 626 ft | 13 kts | 296° |
| 2026-04-26 09:57 | 48.11228 | 16.57494 | 628 ft | 13 kts | 296° |
| 2026-04-26 09:57 | 48.11269 | 16.57368 | 628 ft | 14 kts | 296° |
| 2026-04-26 09:57 | 48.11322 | 16.57210 | 627 ft | 18 kts | 296° |
| 2026-04-26 09:57 | 48.11378 | 16.57039 | 628 ft | 18 kts | 296° |
| 2026-04-26 09:58 | 48.11434 | 16.56867 | 630 ft | 18 kts | 296° |
| 2026-04-26 09:58 | 48.11491 | 16.56695 | 618 ft | 19 kts | 296° |
| 2026-04-26 09:58 | 48.11556 | 16.56496 | 626 ft | 23 kts | 295° |
| 2026-04-26 09:58 | 48.11626 | 16.56279 | 622 ft | 22 kts | 296° |
| 2026-04-26 09:59 | 48.11694 | 16.56070 | 617 ft | 22 kts | 295° |
| 2026-04-26 09:59 | 48.11763 | 16.55861 | 630 ft | 22 kts | 296° |
| 2026-04-26 09:59 | 48.11829 | 16.55650 | 628 ft | 22 kts | 296° |
| 2026-04-26 09:59 | 48.11890 | 16.55436 | 624 ft | 22 kts | 291° |
| 2026-04-26 10:00 | 48.11957 | 16.55226 | 622 ft | 21 kts | 296° |
| 2026-04-26 10:00 | 48.12006 | 16.55073 | 627 ft | 11 kts | 295° |
| 2026-04-26 10:00 | 48.12036 | 16.55009 | 627 ft | 7 kts | 331° |
| 2026-04-26 10:00 | 48.12067 | 16.55019 | 622 ft | 5 kts | 22° |
| 2026-04-26 10:01 | 48.12097 | 16.55038 | 625 ft | 4 kts | 24° |
| 2026-04-26 10:01 | 48.12116 | 16.55052 | 626 ft | 2 kts | 25° |
| 2026-04-26 10:01 | 48.12117 | 16.55053 | 625 ft | 0 kts | 25° |